sensor_id;sensor_type;location;lat;lon;timestamp;temperature;humidity
820;DHT22;392;48.838;2.322;2023-04-15T00:00:41;10.20;79.60
820;DHT22;392;48.838;2.322;2023-04-15T00:03:08;10.20;80.10
820;DHT22;392;48.838;2.322;2023-04-15T00:05:36;10.20;80.50
820;DHT22;392;48.838;2.322;2023-04-15T00:08:03;10.20;80.60
820;DHT22;392;48.838;2.322;2023-04-15T00:10:32;10.20;80.90
820;DHT22;392;48.838;2.322;2023-04-15T00:13:00;10.30;81.00
820;DHT22;392;48.838;2.322;2023-04-15T00:15:29;10.30;81.00
820;DHT22;392;48.838;2.322;2023-04-15T00:17:56;10.30;81.00
820;DHT22;392;48.838;2.322;2023-04-15T00:20:24;10.30;80.30
820;DHT22;392;48.838;2.322;2023-04-15T00:22:51;10.30;80.50
820;DHT22;392;48.838;2.322;2023-04-15T00:25:18;10.30;80.80
820;DHT22;392;48.838;2.322;2023-04-15T00:27:47;10.30;80.40
820;DHT22;392;48.838;2.322;2023-04-15T00:30:14;10.30;80.10
820;DHT22;392;48.838;2.322;2023-04-15T00:32:42;10.20;79.90
820;DHT22;392;48.838;2.322;2023-04-15T00:35:09;10.20;80.10
820;DHT22;392;48.838;2.322;2023-04-15T00:37:37;10.20;80.50
820;DHT22;392;48.838;2.322;2023-04-15T00:40:05;10.10;80.80
820;DHT22;392;48.838;2.322;2023-04-15T00:42:34;10.10;80.80
820;DHT22;392;48.838;2.322;2023-04-15T00:45:04;10.10;81.20
820;DHT22;392;48.838;2.322;2023-04-15T00:47:34;10.10;81.80
820;DHT22;392;48.838;2.322;2023-04-15T00:50:02;10.10;82.10
820;DHT22;392;48.838;2.322;2023-04-15T00:52:30;10.10;82.50
820;DHT22;392;48.838;2.322;2023-04-15T00:54:58;10.10;83.40
820;DHT22;392;48.838;2.322;2023-04-15T00:57:28;10.00;84.60
820;DHT22;392;48.838;2.322;2023-04-15T00:59:55;9.90;86.60
820;DHT22;392;48.838;2.322;2023-04-15T01:02:24;9.90;87.60
820;DHT22;392;48.838;2.322;2023-04-15T01:04:52;9.90;88.90
820;DHT22;392;48.838;2.322;2023-04-15T01:07:19;9.90;90.00
820;DHT22;392;48.838;2.322;2023-04-15T01:09:46;9.80;90.50
820;DHT22;392;48.838;2.322;2023-04-15T01:12:14;9.70;91.20
820;DHT22;392;48.838;2.322;2023-04-15T01:14:42;9.70;91.60
820;DHT22;392;48.838;2.322;2023-04-15T01:17:10;9.70;92.10
820;DHT22;392;48.838;2.322;2023-04-15T01:19:40;9.70;92.60
820;DHT22;392;48.838;2.322;2023-04-15T01:22:08;9.80;92.80
820;DHT22;392;48.838;2.322;2023-04-15T01:24:37;9.70;92.70
820;DHT22;392;48.838;2.322;2023-04-15T01:27:06;9.70;93.30
820;DHT22;392;48.838;2.322;2023-04-15T01:29:37;9.60;93.70
820;DHT22;392;48.838;2.322;2023-04-15T01:32:04;9.60;94.10
820;DHT22;392;48.838;2.322;2023-04-15T01:34:51;9.60;94.70
820;DHT22;392;48.838;2.322;2023-04-15T01:37:40;9.70;95.10
820;DHT22;392;48.838;2.322;2023-04-15T01:40:08;9.60;95.50
820;DHT22;392;48.838;2.322;2023-04-15T01:42:39;9.60;95.80
820;DHT22;392;48.838;2.322;2023-04-15T01:45:09;9.60;96.30
820;DHT22;392;48.838;2.322;2023-04-15T01:47:39;9.60;96.80
820;DHT22;392;48.838;2.322;2023-04-15T01:50:10;9.60;97.10
820;DHT22;392;48.838;2.322;2023-04-15T01:52:39;9.60;97.40
820;DHT22;392;48.838;2.322;2023-04-15T01:55:09;9.50;97.60
820;DHT22;392;48.838;2.322;2023-04-15T01:57:40;9.50;98.10
820;DHT22;392;48.838;2.322;2023-04-15T02:00:09;9.50;98.30
820;DHT22;392;48.838;2.322;2023-04-15T02:02:42;9.50;98.60
820;DHT22;392;48.838;2.322;2023-04-15T02:05:10;9.50;98.90
820;DHT22;392;48.838;2.322;2023-04-15T02:07:39;9.50;99.10
820;DHT22;392;48.838;2.322;2023-04-15T02:10:08;9.60;99.30
820;DHT22;392;48.838;2.322;2023-04-15T02:12:37;9.60;99.70
820;DHT22;392;48.838;2.322;2023-04-15T02:15:09;9.60;99.90
820;DHT22;392;48.838;2.322;2023-04-15T02:17:37;9.70;99.90
820;DHT22;392;48.838;2.322;2023-04-15T02:20:09;9.70;99.90
820;DHT22;392;48.838;2.322;2023-04-15T02:22:38;9.80;99.90
820;DHT22;392;48.838;2.322;2023-04-15T02:25:08;9.80;99.90
820;DHT22;392;48.838;2.322;2023-04-15T02:27:37;9.80;99.90
820;DHT22;392;48.838;2.322;2023-04-15T02:30:08;9.80;99.90
820;DHT22;392;48.838;2.322;2023-04-15T02:32:37;9.80;99.90
820;DHT22;392;48.838;2.322;2023-04-15T02:35:07;9.70;99.90
820;DHT22;392;48.838;2.322;2023-04-15T02:37:36;9.70;99.90
820;DHT22;392;48.838;2.322;2023-04-15T02:40:11;9.70;99.90
820;DHT22;392;48.838;2.322;2023-04-15T02:42:41;9.70;99.90
820;DHT22;392;48.838;2.322;2023-04-15T02:45:14;9.70;99.90
820;DHT22;392;48.838;2.322;2023-04-15T02:47:44;9.70;99.90
820;DHT22;392;48.838;2.322;2023-04-15T02:50:13;9.80;99.90
820;DHT22;392;48.838;2.322;2023-04-15T02:52:42;9.70;99.90
820;DHT22;392;48.838;2.322;2023-04-15T02:55:11;9.70;99.90
820;DHT22;392;48.838;2.322;2023-04-15T02:57:40;9.70;99.90
820;DHT22;392;48.838;2.322;2023-04-15T03:00:11;9.80;99.90
820;DHT22;392;48.838;2.322;2023-04-15T03:02:45;9.70;99.90
820;DHT22;392;48.838;2.322;2023-04-15T03:05:15;9.80;99.90
820;DHT22;392;48.838;2.322;2023-04-15T03:07:50;9.80;99.90
820;DHT22;392;48.838;2.322;2023-04-15T03:10:19;9.80;99.90
820;DHT22;392;48.838;2.322;2023-04-15T03:12:48;9.80;99.90
820;DHT22;392;48.838;2.322;2023-04-15T03:15:20;9.80;99.90
820;DHT22;392;48.838;2.322;2023-04-15T03:17:52;9.80;99.90
820;DHT22;392;48.838;2.322;2023-04-15T03:20:20;9.70;99.90
820;DHT22;392;48.838;2.322;2023-04-15T03:22:51;9.80;99.90
820;DHT22;392;48.838;2.322;2023-04-15T03:25:21;9.80;99.90
820;DHT22;392;48.838;2.322;2023-04-15T03:27:49;9.80;99.90
820;DHT22;392;48.838;2.322;2023-04-15T03:30:19;9.80;99.90
820;DHT22;392;48.838;2.322;2023-04-15T03:32:48;9.80;99.90
820;DHT22;392;48.838;2.322;2023-04-15T03:35:16;9.80;99.90
820;DHT22;392;48.838;2.322;2023-04-15T03:37:45;9.70;99.90
820;DHT22;392;48.838;2.322;2023-04-15T03:40:15;9.70;99.90
820;DHT22;392;48.838;2.322;2023-04-15T03:42:44;9.60;99.90
820;DHT22;392;48.838;2.322;2023-04-15T03:45:13;9.60;99.90
820;DHT22;392;48.838;2.322;2023-04-15T03:47:43;9.60;99.90
820;DHT22;392;48.838;2.322;2023-04-15T03:50:11;9.50;99.90
820;DHT22;392;48.838;2.322;2023-04-15T03:52:40;9.50;99.90
820;DHT22;392;48.838;2.322;2023-04-15T03:55:08;9.50;99.90
820;DHT22;392;48.838;2.322;2023-04-15T03:57:37;9.50;99.90
820;DHT22;392;48.838;2.322;2023-04-15T04:00:06;9.50;99.90
820;DHT22;392;48.838;2.322;2023-04-15T04:02:39;9.50;99.90
820;DHT22;392;48.838;2.322;2023-04-15T04:05:09;9.40;99.90
820;DHT22;392;48.838;2.322;2023-04-15T04:07:37;9.30;99.90
820;DHT22;392;48.838;2.322;2023-04-15T04:10:07;9.30;99.90
820;DHT22;392;48.838;2.322;2023-04-15T04:12:36;9.30;99.90
820;DHT22;392;48.838;2.322;2023-04-15T04:15:05;9.30;99.80
820;DHT22;392;48.838;2.322;2023-04-15T04:17:35;9.30;99.60
820;DHT22;392;48.838;2.322;2023-04-15T04:20:04;9.30;99.50
820;DHT22;392;48.838;2.322;2023-04-15T04:22:38;9.30;99.30
820;DHT22;392;48.838;2.322;2023-04-15T04:25:07;9.30;99.10
820;DHT22;392;48.838;2.322;2023-04-15T04:27:37;9.30;99.00
820;DHT22;392;48.838;2.322;2023-04-15T04:30:07;9.30;98.90
820;DHT22;392;48.838;2.322;2023-04-15T04:32:35;9.30;98.80
820;DHT22;392;48.838;2.322;2023-04-15T04:35:04;9.30;98.70
820;DHT22;392;48.838;2.322;2023-04-15T04:37:33;9.30;98.60
820;DHT22;392;48.838;2.322;2023-04-15T04:40:04;9.40;98.50
820;DHT22;392;48.838;2.322;2023-04-15T04:42:34;9.40;98.30
820;DHT22;392;48.838;2.322;2023-04-15T04:45:03;9.40;98.10
820;DHT22;392;48.838;2.322;2023-04-15T04:47:33;9.40;98.10
820;DHT22;392;48.838;2.322;2023-04-15T04:50:02;9.40;98.00
820;DHT22;392;48.838;2.322;2023-04-15T04:52:31;9.50;97.90
820;DHT22;392;48.838;2.322;2023-04-15T04:54:59;9.50;97.90
820;DHT22;392;48.838;2.322;2023-04-15T04:57:29;9.50;97.90
820;DHT22;392;48.838;2.322;2023-04-15T04:59:58;9.50;97.90
820;DHT22;392;48.838;2.322;2023-04-15T05:02:26;9.50;97.90
820;DHT22;392;48.838;2.322;2023-04-15T05:04:55;9.60;97.80
820;DHT22;392;48.838;2.322;2023-04-15T05:07:23;9.50;97.40
820;DHT22;392;48.838;2.322;2023-04-15T05:09:52;9.60;97.30
820;DHT22;392;48.838;2.322;2023-04-15T05:12:20;9.60;97.20
820;DHT22;392;48.838;2.322;2023-04-15T05:14:50;9.60;96.80
820;DHT22;392;48.838;2.322;2023-04-15T05:17:19;9.60;96.50
820;DHT22;392;48.838;2.322;2023-04-15T05:19:47;9.60;95.90
820;DHT22;392;48.838;2.322;2023-04-15T05:22:16;9.60;95.30
820;DHT22;392;48.838;2.322;2023-04-15T05:24:44;9.60;94.50
820;DHT22;392;48.838;2.322;2023-04-15T05:27:13;9.60;94.00
820;DHT22;392;48.838;2.322;2023-04-15T05:29:41;9.60;93.70
820;DHT22;392;48.838;2.322;2023-04-15T05:32:11;9.60;93.00
820;DHT22;392;48.838;2.322;2023-04-15T05:34:40;9.60;92.60
820;DHT22;392;48.838;2.322;2023-04-15T05:37:08;9.60;92.20
820;DHT22;392;48.838;2.322;2023-04-15T05:39:37;9.60;91.80
820;DHT22;392;48.838;2.322;2023-04-15T05:42:05;9.60;91.40
820;DHT22;392;48.838;2.322;2023-04-15T05:44:34;9.60;91.20
820;DHT22;392;48.838;2.322;2023-04-15T05:47:02;9.70;91.10
820;DHT22;392;48.838;2.322;2023-04-15T05:49:33;9.70;90.90
820;DHT22;392;48.838;2.322;2023-04-15T05:52:02;9.70;90.60
820;DHT22;392;48.838;2.322;2023-04-15T05:54:30;9.70;90.40
820;DHT22;392;48.838;2.322;2023-04-15T05:56:59;9.80;90.30
820;DHT22;392;48.838;2.322;2023-04-15T05:59:27;9.70;90.00
820;DHT22;392;48.838;2.322;2023-04-15T06:01:56;9.70;90.00
820;DHT22;392;48.838;2.322;2023-04-15T06:04:25;9.70;90.00
820;DHT22;392;48.838;2.322;2023-04-15T06:06:55;9.70;90.10
820;DHT22;392;48.838;2.322;2023-04-15T06:09:23;9.70;90.20
820;DHT22;392;48.838;2.322;2023-04-15T06:11:52;9.70;90.30
820;DHT22;392;48.838;2.322;2023-04-15T06:14:20;9.80;90.40
820;DHT22;392;48.838;2.322;2023-04-15T06:16:49;9.70;90.20
820;DHT22;392;48.838;2.322;2023-04-15T06:19:18;9.70;90.30
820;DHT22;392;48.838;2.322;2023-04-15T06:21:46;9.70;90.40
820;DHT22;392;48.838;2.322;2023-04-15T06:24:16;9.70;90.30
820;DHT22;392;48.838;2.322;2023-04-15T06:26:45;9.80;90.20
820;DHT22;392;48.838;2.322;2023-04-15T06:29:13;9.80;90.00
820;DHT22;392;48.838;2.322;2023-04-15T06:31:42;9.80;90.00
820;DHT22;392;48.838;2.322;2023-04-15T06:34:10;9.80;90.00
820;DHT22;392;48.838;2.322;2023-04-15T06:36:39;9.80;89.70
820;DHT22;392;48.838;2.322;2023-04-15T06:39:07;9.90;89.70
820;DHT22;392;48.838;2.322;2023-04-15T06:41:37;9.90;89.20
820;DHT22;392;48.838;2.322;2023-04-15T06:44:06;10.00;86.80
820;DHT22;392;48.838;2.322;2023-04-15T06:46:35;9.90;87.20
820;DHT22;392;48.838;2.322;2023-04-15T06:49:03;10.00;86.30
820;DHT22;392;48.838;2.322;2023-04-15T06:51:33;10.00;86.30
820;DHT22;392;48.838;2.322;2023-04-15T06:54:02;10.10;86.00
820;DHT22;392;48.838;2.322;2023-04-15T06:56:32;10.10;85.50
820;DHT22;392;48.838;2.322;2023-04-15T06:59:02;10.20;85.40
820;DHT22;392;48.838;2.322;2023-04-15T07:01:30;10.30;85.20
820;DHT22;392;48.838;2.322;2023-04-15T07:03:59;10.30;83.50
820;DHT22;392;48.838;2.322;2023-04-15T07:06:28;10.30;83.10
820;DHT22;392;48.838;2.322;2023-04-15T07:08:56;10.40;82.50
820;DHT22;392;48.838;2.322;2023-04-15T07:11:25;10.40;81.70
820;DHT22;392;48.838;2.322;2023-04-15T07:13:53;10.40;81.60
820;DHT22;392;48.838;2.322;2023-04-15T07:16:24;10.40;81.50
820;DHT22;392;48.838;2.322;2023-04-15T07:18:52;10.40;81.80
820;DHT22;392;48.838;2.322;2023-04-15T07:21:21;10.40;81.60
820;DHT22;392;48.838;2.322;2023-04-15T07:23:51;10.40;81.70
820;DHT22;392;48.838;2.322;2023-04-15T07:26:19;10.40;81.70
820;DHT22;392;48.838;2.322;2023-04-15T07:28:48;10.40;81.80
820;DHT22;392;48.838;2.322;2023-04-15T07:31:17;10.40;82.00
820;DHT22;392;48.838;2.322;2023-04-15T07:33:47;10.30;82.00
820;DHT22;392;48.838;2.322;2023-04-15T07:36:16;10.30;82.40
820;DHT22;392;48.838;2.322;2023-04-15T07:38:44;10.30;82.80
820;DHT22;392;48.838;2.322;2023-04-15T07:41:13;10.20;82.60
820;DHT22;392;48.838;2.322;2023-04-15T07:43:42;10.20;82.90
820;DHT22;392;48.838;2.322;2023-04-15T07:46:10;10.20;83.00
820;DHT22;392;48.838;2.322;2023-04-15T07:48:39;10.20;82.70
820;DHT22;392;48.838;2.322;2023-04-15T07:51:10;10.20;82.90
820;DHT22;392;48.838;2.322;2023-04-15T07:53:38;10.20;82.50
820;DHT22;392;48.838;2.322;2023-04-15T07:56:08;10.10;82.40
820;DHT22;392;48.838;2.322;2023-04-15T07:58:37;10.10;82.80
820;DHT22;392;48.838;2.322;2023-04-15T08:01:06;10.10;83.60
820;DHT22;392;48.838;2.322;2023-04-15T08:03:34;10.00;84.30
820;DHT22;392;48.838;2.322;2023-04-15T08:06:03;10.00;85.30
820;DHT22;392;48.838;2.322;2023-04-15T08:08:33;10.00;86.30
820;DHT22;392;48.838;2.322;2023-04-15T08:11:02;10.00;87.40
820;DHT22;392;48.838;2.322;2023-04-15T08:13:31;10.00;89.10
820;DHT22;392;48.838;2.322;2023-04-15T08:16:19;10.00;89.30
820;DHT22;392;48.838;2.322;2023-04-15T08:18:50;10.00;90.00
820;DHT22;392;48.838;2.322;2023-04-15T08:21:20;10.00;90.50
820;DHT22;392;48.838;2.322;2023-04-15T08:23:51;10.10;90.70
820;DHT22;392;48.838;2.322;2023-04-15T08:26:20;10.20;90.70
820;DHT22;392;48.838;2.322;2023-04-15T08:28:49;10.20;90.50
820;DHT22;392;48.838;2.322;2023-04-15T08:31:18;10.20;90.10
820;DHT22;392;48.838;2.322;2023-04-15T08:33:47;10.20;89.50
820;DHT22;392;48.838;2.322;2023-04-15T08:36:18;10.20;88.90
820;DHT22;392;48.838;2.322;2023-04-15T08:38:48;10.30;87.80
820;DHT22;392;48.838;2.322;2023-04-15T08:41:21;10.30;87.20
820;DHT22;392;48.838;2.322;2023-04-15T08:43:56;10.40;86.80
820;DHT22;392;48.838;2.322;2023-04-15T08:46:25;10.60;86.60
820;DHT22;392;48.838;2.322;2023-04-15T08:48:56;10.70;85.50
820;DHT22;392;48.838;2.322;2023-04-15T08:51:27;10.80;84.10
820;DHT22;392;48.838;2.322;2023-04-15T08:53:58;11.00;81.80
820;DHT22;392;48.838;2.322;2023-04-15T08:56:29;11.10;79.80
820;DHT22;392;48.838;2.322;2023-04-15T08:58:59;11.30;78.30
820;DHT22;392;48.838;2.322;2023-04-15T09:01:28;11.40;75.00
820;DHT22;392;48.838;2.322;2023-04-15T09:03:58;11.50;71.70
820;DHT22;392;48.838;2.322;2023-04-15T09:06:27;11.60;68.90
820;DHT22;392;48.838;2.322;2023-04-15T09:08:55;11.60;65.70
820;DHT22;392;48.838;2.322;2023-04-15T09:11:25;11.50;63.50
820;DHT22;392;48.838;2.322;2023-04-15T09:13:55;11.50;62.60
820;DHT22;392;48.838;2.322;2023-04-15T09:16:24;11.50;61.80
820;DHT22;392;48.838;2.322;2023-04-15T09:18:53;11.50;61.70
820;DHT22;392;48.838;2.322;2023-04-15T09:21:22;11.50;62.20
820;DHT22;392;48.838;2.322;2023-04-15T09:23:55;11.60;62.00
820;DHT22;392;48.838;2.322;2023-04-15T09:26:33;11.50;60.30
820;DHT22;392;48.838;2.322;2023-04-15T09:29:04;11.40;59.60
820;DHT22;392;48.838;2.322;2023-04-15T09:31:34;11.50;61.80
820;DHT22;392;48.838;2.322;2023-04-15T09:34:03;11.60;61.30
820;DHT22;392;48.838;2.322;2023-04-15T09:36:51;11.80;61.30
820;DHT22;392;48.838;2.322;2023-04-15T09:39:20;12.00;60.20
820;DHT22;392;48.838;2.322;2023-04-15T09:44:44;12.10;57.40
820;DHT22;392;48.838;2.322;2023-04-15T09:47:27;12.60;54.50
820;DHT22;392;48.838;2.322;2023-04-15T09:49:56;12.90;51.50
820;DHT22;392;48.838;2.322;2023-04-15T09:52:25;13.10;49.60
820;DHT22;392;48.838;2.322;2023-04-15T09:54:55;13.40;47.90
820;DHT22;392;48.838;2.322;2023-04-15T09:57:24;13.50;45.50
820;DHT22;392;48.838;2.322;2023-04-15T10:00:02;13.40;43.50
820;DHT22;392;48.838;2.322;2023-04-15T10:02:33;13.20;44.10
820;DHT22;392;48.838;2.322;2023-04-15T10:05:03;13.00;45.70
820;DHT22;392;48.838;2.322;2023-04-15T10:07:32;12.90;47.00
820;DHT22;392;48.838;2.322;2023-04-15T10:10:02;12.90;47.20
820;DHT22;392;48.838;2.322;2023-04-15T10:12:32;12.90;47.20
820;DHT22;392;48.838;2.322;2023-04-15T10:15:04;12.80;46.50
820;DHT22;392;48.838;2.322;2023-04-15T10:17:35;12.70;47.30
820;DHT22;392;48.838;2.322;2023-04-15T10:20:05;12.60;48.00
820;DHT22;392;48.838;2.322;2023-04-15T10:22:35;12.60;48.40
820;DHT22;392;48.838;2.322;2023-04-15T10:25:05;12.70;48.80
820;DHT22;392;48.838;2.322;2023-04-15T10:27:35;12.80;48.80
820;DHT22;392;48.838;2.322;2023-04-15T10:30:06;13.00;49.60
820;DHT22;392;48.838;2.322;2023-04-15T10:32:35;13.20;47.30
820;DHT22;392;48.838;2.322;2023-04-15T10:35:06;13.30;46.50
820;DHT22;392;48.838;2.322;2023-04-15T10:37:37;13.30;45.10
820;DHT22;392;48.838;2.322;2023-04-15T10:40:28;13.20;45.70
820;DHT22;392;48.838;2.322;2023-04-15T10:42:59;13.30;45.50
820;DHT22;392;48.838;2.322;2023-04-15T10:45:34;13.30;45.00
820;DHT22;392;48.838;2.322;2023-04-15T10:48:06;13.40;43.90
820;DHT22;392;48.838;2.322;2023-04-15T10:50:36;13.60;43.00
820;DHT22;392;48.838;2.322;2023-04-15T10:53:05;13.70;41.50
820;DHT22;392;48.838;2.322;2023-04-15T10:55:37;13.80;41.40
820;DHT22;392;48.838;2.322;2023-04-15T10:58:09;13.80;39.60
820;DHT22;392;48.838;2.322;2023-04-15T11:00:38;13.80;40.10
820;DHT22;392;48.838;2.322;2023-04-15T11:03:08;13.70;39.80
820;DHT22;392;48.838;2.322;2023-04-15T11:05:51;13.70;40.40
820;DHT22;392;48.838;2.322;2023-04-15T11:08:21;13.80;40.70
820;DHT22;392;48.838;2.322;2023-04-15T11:11:22;13.80;40.40
820;DHT22;392;48.838;2.322;2023-04-15T11:13:50;13.90;39.30
820;DHT22;392;48.838;2.322;2023-04-15T11:16:21;14.00;37.40
820;DHT22;392;48.838;2.322;2023-04-15T11:18:53;14.10;38.10
820;DHT22;392;48.838;2.322;2023-04-15T11:21:24;14.20;37.80
820;DHT22;392;48.838;2.322;2023-04-15T11:23:54;14.30;37.30
820;DHT22;392;48.838;2.322;2023-04-15T11:26:25;14.20;37.80
820;DHT22;392;48.838;2.322;2023-04-15T11:28:54;14.20;37.80
820;DHT22;392;48.838;2.322;2023-04-15T11:31:26;14.20;36.30
820;DHT22;392;48.838;2.322;2023-04-15T11:33:55;14.10;36.50
820;DHT22;392;48.838;2.322;2023-04-15T11:36:26;14.10;37.00
820;DHT22;392;48.838;2.322;2023-04-15T11:38:57;14.20;36.70
820;DHT22;392;48.838;2.322;2023-04-15T11:41:26;14.20;36.40
820;DHT22;392;48.838;2.322;2023-04-15T11:43:55;14.20;35.40
820;DHT22;392;48.838;2.322;2023-04-15T11:46:29;14.10;35.40
820;DHT22;392;48.838;2.322;2023-04-15T11:48:58;14.10;36.20
820;DHT22;392;48.838;2.322;2023-04-15T11:51:31;14.10;35.80
820;DHT22;392;48.838;2.322;2023-04-15T11:53:59;14.00;36.20
820;DHT22;392;48.838;2.322;2023-04-15T11:56:26;13.90;36.40
820;DHT22;392;48.838;2.322;2023-04-15T11:58:55;13.90;35.70
820;DHT22;392;48.838;2.322;2023-04-15T12:01:31;13.70;36.10
820;DHT22;392;48.838;2.322;2023-04-15T12:03:59;13.60;37.20
820;DHT22;392;48.838;2.322;2023-04-15T12:06:31;13.50;38.10
820;DHT22;392;48.838;2.322;2023-04-15T12:09:06;13.40;38.10
820;DHT22;392;48.838;2.322;2023-04-15T12:11:40;13.40;38.20
820;DHT22;392;48.838;2.322;2023-04-15T12:14:15;13.40;38.50
820;DHT22;392;48.838;2.322;2023-04-15T12:16:48;13.40;38.80
820;DHT22;392;48.838;2.322;2023-04-15T12:19:22;13.40;37.60
820;DHT22;392;48.838;2.322;2023-04-15T12:21:52;13.40;37.10
820;DHT22;392;48.838;2.322;2023-04-15T12:24:20;13.40;37.20
820;DHT22;392;48.838;2.322;2023-04-15T12:26:50;13.50;37.20
820;DHT22;392;48.838;2.322;2023-04-15T12:29:19;13.50;37.00
820;DHT22;392;48.838;2.322;2023-04-15T12:31:53;13.40;36.50
820;DHT22;392;48.838;2.322;2023-04-15T12:34:26;13.40;37.20
820;DHT22;392;48.838;2.322;2023-04-15T12:36:55;13.40;37.50
820;DHT22;392;48.838;2.322;2023-04-15T12:39:23;13.40;37.50
820;DHT22;392;48.838;2.322;2023-04-15T12:41:51;13.50;37.20
820;DHT22;392;48.838;2.322;2023-04-15T12:44:19;13.50;37.20
820;DHT22;392;48.838;2.322;2023-04-15T12:46:49;13.50;37.20
820;DHT22;392;48.838;2.322;2023-04-15T12:49:18;13.50;36.60
820;DHT22;392;48.838;2.322;2023-04-15T12:51:47;13.40;36.10
820;DHT22;392;48.838;2.322;2023-04-15T12:54:15;13.30;35.90
820;DHT22;392;48.838;2.322;2023-04-15T12:56:43;13.20;36.10
820;DHT22;392;48.838;2.322;2023-04-15T12:59:10;13.20;36.40
820;DHT22;392;48.838;2.322;2023-04-15T13:01:38;13.20;36.40
820;DHT22;392;48.838;2.322;2023-04-15T13:04:06;13.30;35.70
820;DHT22;392;48.838;2.322;2023-04-15T13:06:34;13.40;35.90
820;DHT22;392;48.838;2.322;2023-04-15T13:09:03;13.60;35.30
820;DHT22;392;48.838;2.322;2023-04-15T13:11:31;13.70;34.50
820;DHT22;392;48.838;2.322;2023-04-15T13:13:59;13.80;34.00
820;DHT22;392;48.838;2.322;2023-04-15T13:16:27;13.80;33.80
820;DHT22;392;48.838;2.322;2023-04-15T13:18:54;13.90;33.80
820;DHT22;392;48.838;2.322;2023-04-15T13:21:21;14.00;33.70
820;DHT22;392;48.838;2.322;2023-04-15T13:23:50;14.00;33.10
820;DHT22;392;48.838;2.322;2023-04-15T13:26:17;14.10;33.00
820;DHT22;392;48.838;2.322;2023-04-15T13:28:44;14.00;33.40
820;DHT22;392;48.838;2.322;2023-04-15T13:31:12;13.90;34.10
820;DHT22;392;48.838;2.322;2023-04-15T13:33:39;13.80;35.00
820;DHT22;392;48.838;2.322;2023-04-15T13:36:07;13.70;35.70
820;DHT22;392;48.838;2.322;2023-04-15T13:38:35;13.70;35.60
820;DHT22;392;48.838;2.322;2023-04-15T13:41:03;13.70;35.40
820;DHT22;392;48.838;2.322;2023-04-15T13:43:30;13.70;36.50
820;DHT22;392;48.838;2.322;2023-04-15T13:45:59;13.80;36.50
820;DHT22;392;48.838;2.322;2023-04-15T13:48:27;13.90;35.10
820;DHT22;392;48.838;2.322;2023-04-15T13:50:54;14.00;34.70
820;DHT22;392;48.838;2.322;2023-04-15T13:53:22;14.10;34.60
820;DHT22;392;48.838;2.322;2023-04-15T13:55:49;14.20;33.60
820;DHT22;392;48.838;2.322;2023-04-15T13:58:17;14.40;33.20
820;DHT22;392;48.838;2.322;2023-04-15T14:00:45;14.50;32.20
820;DHT22;392;48.838;2.322;2023-04-15T14:03:12;14.70;31.50
820;DHT22;392;48.838;2.322;2023-04-15T14:05:39;14.80;30.10
820;DHT22;392;48.838;2.322;2023-04-15T14:08:06;14.90;29.60
820;DHT22;392;48.838;2.322;2023-04-15T14:10:34;14.90;29.20
820;DHT22;392;48.838;2.322;2023-04-15T14:13:02;14.90;29.00
820;DHT22;392;48.838;2.322;2023-04-15T14:15:30;14.90;28.80
820;DHT22;392;48.838;2.322;2023-04-15T14:17:57;15.10;28.60
820;DHT22;392;48.838;2.322;2023-04-15T14:20:25;15.30;28.10
820;DHT22;392;48.838;2.322;2023-04-15T14:22:52;15.40;28.10
820;DHT22;392;48.838;2.322;2023-04-15T14:25:19;15.60;26.60
820;DHT22;392;48.838;2.322;2023-04-15T14:27:47;15.60;26.60
820;DHT22;392;48.838;2.322;2023-04-15T14:30:14;15.50;26.70
820;DHT22;392;48.838;2.322;2023-04-15T14:32:43;15.50;27.10
820;DHT22;392;48.838;2.322;2023-04-15T14:35:10;15.50;27.20
820;DHT22;392;48.838;2.322;2023-04-15T14:37:38;15.50;27.70
820;DHT22;392;48.838;2.322;2023-04-15T14:40:06;15.50;27.90
820;DHT22;392;48.838;2.322;2023-04-15T14:42:35;15.50;27.60
820;DHT22;392;48.838;2.322;2023-04-15T14:45:03;15.50;27.00
820;DHT22;392;48.838;2.322;2023-04-15T14:47:31;15.50;27.20
820;DHT22;392;48.838;2.322;2023-04-15T14:50:00;15.40;27.40
820;DHT22;392;48.838;2.322;2023-04-15T14:52:27;15.30;27.50
820;DHT22;392;48.838;2.322;2023-04-15T14:54:54;15.30;28.10
820;DHT22;392;48.838;2.322;2023-04-15T14:57:22;15.40;27.60
820;DHT22;392;48.838;2.322;2023-04-15T14:59:49;15.30;27.70
820;DHT22;392;48.838;2.322;2023-04-15T15:02:21;15.30;27.80
820;DHT22;392;48.838;2.322;2023-04-15T15:04:48;15.40;27.90
820;DHT22;392;48.838;2.322;2023-04-15T15:07:17;15.50;27.30
820;DHT22;392;48.838;2.322;2023-04-15T15:09:44;15.60;27.40
820;DHT22;392;48.838;2.322;2023-04-15T15:12:11;15.70;27.30
820;DHT22;392;48.838;2.322;2023-04-15T15:14:39;15.70;27.20
820;DHT22;392;48.838;2.322;2023-04-15T15:17:06;15.60;27.70
820;DHT22;392;48.838;2.322;2023-04-15T15:19:33;15.60;28.00
820;DHT22;392;48.838;2.322;2023-04-15T15:22:01;15.60;27.80
820;DHT22;392;48.838;2.322;2023-04-15T15:24:30;15.60;27.80
820;DHT22;392;48.838;2.322;2023-04-15T15:26:57;15.60;27.70
820;DHT22;392;48.838;2.322;2023-04-15T15:29:25;15.50;27.30
820;DHT22;392;48.838;2.322;2023-04-15T15:31:52;15.60;27.80
820;DHT22;392;48.838;2.322;2023-04-15T15:34:19;15.60;27.80
820;DHT22;392;48.838;2.322;2023-04-15T15:36:47;15.70;27.60
820;DHT22;392;48.838;2.322;2023-04-15T15:39:15;15.70;27.50
820;DHT22;392;48.838;2.322;2023-04-15T15:41:43;15.80;27.40
820;DHT22;392;48.838;2.322;2023-04-15T15:44:10;15.80;27.50
820;DHT22;392;48.838;2.322;2023-04-15T15:46:37;15.80;27.40
820;DHT22;392;48.838;2.322;2023-04-15T15:49:05;15.70;27.50
820;DHT22;392;48.838;2.322;2023-04-15T15:51:32;15.70;27.60
820;DHT22;392;48.838;2.322;2023-04-15T15:54:00;15.60;27.50
820;DHT22;392;48.838;2.322;2023-04-15T15:56:27;15.50;27.80
820;DHT22;392;48.838;2.322;2023-04-15T15:58:55;15.50;27.60
820;DHT22;392;48.838;2.322;2023-04-15T16:01:22;15.50;28.00
820;DHT22;392;48.838;2.322;2023-04-15T16:03:50;15.60;27.80
820;DHT22;392;48.838;2.322;2023-04-15T16:06:17;15.70;27.40
820;DHT22;392;48.838;2.322;2023-04-15T16:08:44;15.80;26.80
820;DHT22;392;48.838;2.322;2023-04-15T16:11:11;15.90;26.60
820;DHT22;392;48.838;2.322;2023-04-15T16:13:39;16.00;25.40
820;DHT22;392;48.838;2.322;2023-04-15T16:16:07;16.10;25.40
820;DHT22;392;48.838;2.322;2023-04-15T16:18:35;16.00;25.20
820;DHT22;392;48.838;2.322;2023-04-15T16:21:02;16.10;25.40
820;DHT22;392;48.838;2.322;2023-04-15T16:23:30;16.20;25.40
820;DHT22;392;48.838;2.322;2023-04-15T16:25:57;16.30;25.10
820;DHT22;392;48.838;2.322;2023-04-15T16:28:24;16.40;24.50
820;DHT22;392;48.838;2.322;2023-04-15T16:30:51;16.50;24.50
820;DHT22;392;48.838;2.322;2023-04-15T16:33:20;16.50;24.30
820;DHT22;392;48.838;2.322;2023-04-15T16:35:47;16.50;23.90
820;DHT22;392;48.838;2.322;2023-04-15T16:38:15;16.50;23.60
820;DHT22;392;48.838;2.322;2023-04-15T16:40:42;16.40;23.90
820;DHT22;392;48.838;2.322;2023-04-15T16:43:09;16.30;24.40
820;DHT22;392;48.838;2.322;2023-04-15T16:45:36;16.20;24.70
820;DHT22;392;48.838;2.322;2023-04-15T16:48:04;16.10;24.90
820;DHT22;392;48.838;2.322;2023-04-15T16:50:33;15.90;25.30
820;DHT22;392;48.838;2.322;2023-04-15T16:53:01;15.80;25.60
820;DHT22;392;48.838;2.322;2023-04-15T16:55:29;15.70;26.00